Time;durP1;ratioP1;P1;durP2;ratioP2;P2;SDS_P1;SDS_P2;PMS_P1;PMS_P2;Temp;Humidity;BMP_temperature;BMP_pressure;BME280_temperature;BME280_humidity;BME280_pressure;Samples;Min_cycle;Max_cycle;Signal;HPM_P1;HPM_P2
2022/11/16 00:01:07;;;;;;;1.53;1.10;;;;;;;;;;5092884;28;20035;-60
2022/11/16 00:03:34;;;;;;;3.63;1.83;;;;;;;;;;5092808;28;20107;-61
2022/11/16 00:06:02;;;;;;;7.97;2.37;;;;;;;;;;5074526;28;20341;-60
2022/11/16 00:08:33;;;;;;;1.83;1.23;;;;;;;;;;5079566;28;20191;-60
2022/11/16 00:11:05;;;;;;;2.20;1.47;;;;;;;;;;5087590;28;20491;-60
2022/11/16 00:13:33;;;;;;;2.93;2.10;;;;;;;;;;5087625;28;20538;-61
2022/11/16 00:16:00;;;;;;;2.97;1.80;;;;;;;;;;5087743;28;20022;-60
2022/11/16 00:18:27;;;;;;;2.27;1.43;;;;;;;;;;5089807;28;20024;-61
2022/11/16 00:20:53;;;;;;;3.10;1.50;;;;;;;;;;5092126;28;20107;-60
2022/11/16 00:23:21;;;;;;;2.57;1.40;;;;;;;;;;5079727;28;20547;-61
2022/11/16 00:25:49;;;;;;;7.00;2.23;;;;;;;;;;5072518;28;20045;-60
2022/11/16 00:28:16;;;;;;;3.97;1.97;;;;;;;;;;5071999;28;20025;-60
2022/11/16 00:30:43;;;;;;;1.67;1.17;;;;;;;;;;5069720;28;20028;-61
2022/11/16 00:33:14;;;;;;;1.97;1.40;;;;;;;;;;5067214;28;20036;-60
2022/11/16 00:35:41;;;;;;;2.07;1.57;;;;;;;;;;5067016;28;20460;-60
2022/11/16 00:38:07;;;;;;;2.00;1.27;;;;;;;;;;5084729;28;20074;-60
2022/11/16 00:40:34;;;;;;;2.67;1.53;;;;;;;;;;5089173;28;20456;-60
2022/11/16 00:43:01;;;;;;;1.23;1.13;;;;;;;;;;5092453;28;20031;-62
2022/11/16 00:45:27;;;;;;;2.70;1.90;;;;;;;;;;5092137;28;20054;-60
2022/11/16 00:47:54;;;;;;;2.00;1.63;;;;;;;;;;5090508;28;20161;-61
2022/11/16 00:50:21;;;;;;;4.57;1.97;;;;;;;;;;5092015;28;20077;-60
2022/11/16 00:52:47;;;;;;;4.10;1.53;;;;;;;;;;5089644;28;20032;-60
2022/11/16 00:55:14;;;;;;;1.27;1.00;;;;;;;;;;5086989;28;20410;-60
2022/11/16 00:57:41;;;;;;;2.90;1.90;;;;;;;;;;5087244;28;20030;-60
2022/11/16 01:00:08;;;;;;;2.00;1.37;;;;;;;;;;5087134;28;20032;-60
2022/11/16 01:02:35;;;;;;;4.37;1.97;;;;;;;;;;5077578;28;20053;-61
2022/11/16 01:05:01;;;;;;;2.30;1.80;;;;;;;;;;5082521;28;20482;-60
2022/11/16 01:07:28;;;;;;;11.20;2.13;;;;;;;;;;5095381;28;20033;-60
2022/11/16 01:09:55;;;;;;;4.13;2.17;;;;;;;;;;5096003;28;20031;-60
2022/11/16 01:12:21;;;;;;;20.70;2.70;;;;;;;;;;5095788;28;20538;-60
2022/11/16 01:14:48;;;;;;;2.43;1.80;;;;;;;;;;5090201;28;20024;-60
2022/11/16 01:17:15;;;;;;;2.70;1.93;;;;;;;;;;5070604;28;20021;-61
2022/11/16 01:19:42;;;;;;;3.40;2.10;;;;;;;;;;5070783;28;20147;-61
2022/11/16 01:22:08;;;;;;;2.90;2.07;;;;;;;;;;5070522;28;20027;-60
2022/11/16 01:24:35;;;;;;;2.97;1.77;;;;;;;;;;5071381;28;20049;-60
2022/11/16 01:27:02;;;;;;;2.90;2.03;;;;;;;;;;5075314;28;20069;-60
2022/11/16 01:29:29;;;;;;;2.73;1.93;;;;;;;;;;5083372;28;20032;-60
2022/11/16 01:31:56;;;;;;;2.23;1.67;;;;;;;;;;5094993;28;20032;-60
2022/11/16 01:34:23;;;;;;;3.17;1.63;;;;;;;;;;5095609;28;20020;-61
2022/11/16 01:36:50;;;;;;;4.40;2.53;;;;;;;;;;5094357;28;20391;-60
2022/11/16 01:39:17;;;;;;;4.50;2.87;;;;;;;;;;5090474;28;20540;-61
2022/11/16 01:41:44;;;;;;;2.53;1.87;;;;;;;;;;5090401;28;20046;-60
2022/11/16 01:44:29;;;;;;;3.63;2.23;;;;;;;;;;5090403;28;20094;-61
2022/11/16 01:46:55;;;;;;;3.20;2.17;;;;;;;;;;5072429;28;20040;-60
2022/11/16 01:49:23;;;;;;;4.43;2.53;;;;;;;;;;5075169;28;20037;-60
2022/11/16 01:51:53;;;;;;;4.07;2.30;;;;;;;;;;5075013;28;20036;-60
2022/11/16 01:54:19;;;;;;;4.77;2.13;;;;;;;;;;5074729;28;20020;-60
2022/11/16 01:56:47;;;;;;;5.17;3.40;;;;;;;;;;5075035;28;20027;-60
2022/11/16 01:59:15;;;;;;;4.33;3.37;;;;;;;;;;5073286;28;20056;-60
2022/11/16 02:01:41;;;;;;;5.60;4.20;;;;;;;;;;5070746;28;20474;-60
2022/11/16 02:04:11;;;;;;;5.37;3.87;;;;;;;;;;5071850;28;20020;-60
2022/11/16 02:06:50;;;;;;;6.73;3.83;;;;;;;;;;5089925;28;20028;-60
2022/11/16 02:09:53;;;;;;;5.03;3.73;;;;;;;;;;5091015;28;20039;-60
2022/11/16 02:12:34;;;;;;;7.37;4.37;;;;;;;;;;5094904;28;20031;-60
2022/11/16 02:15:09;;;;;;;9.40;4.37;;;;;;;;;;5094773;28;20024;-60
2022/11/16 02:17:54;;;;;;;7.40;4.30;;;;;;;;;;5093410;28;20027;-60
2022/11/16 02:20:20;;;;;;;8.32;4.85;;;;;;;;;;5094760;28;20022;-60
2022/11/16 02:23:06;;;;;;;5.93;4.20;;;;;;;;;;5090901;28;20032;-60
2022/11/16 02:25:39;;;;;;;6.13;4.30;;;;;;;;;;5089920;28;20024;-60
2022/11/16 02:28:24;;;;;;;5.23;4.10;;;;;;;;;;5089304;28;20031;-60
2022/11/16 02:30:50;;;;;;;;;;;;;;;;;;5090145;28;20026;-60
2022/11/16 02:33:19;;;;;;;7.73;5.23;;;;;;;;;;5086583;28;19917;-60
2022/11/16 02:35:50;;;;;;;7.43;3.87;;;;;;;;;;5076917;28;20111;-59
2022/11/16 02:38:28;;;;;;;9.97;5.13;;;;;;;;;;5094684;28;20020;-60
2022/11/16 02:41:01;;;;;;;7.27;4.57;;;;;;;;;;5094265;28;20032;-60
2022/11/16 02:43:34;;;;;;;4.60;3.73;;;;;;;;;;5093532;28;20027;-60
2022/11/16 02:46:04;;;;;;;8.67;5.23;;;;;;;;;;5087457;28;20023;-61
2022/11/16 02:48:35;;;;;;;5.87;4.00;;;;;;;;;;5069067;28;20024;-60
2022/11/16 02:51:02;;;;;;;11.43;5.43;;;;;;;;;;5068942;28;20032;-60
2022/11/16 02:53:32;;;;;;;3.57;2.80;;;;;;;;;;5068869;28;20047;-60
2022/11/16 02:55:59;;;;;;;4.87;4.10;;;;;;;;;;5073882;28;20036;-60
2022/11/16 02:58:26;;;;;;;6.80;5.17;;;;;;;;;;5073717;28;20013;-59
2022/11/16 03:01:02;;;;;;;4.57;3.53;;;;;;;;;;5079957;28;20024;-60
2022/11/16 03:03:43;;;;;;;6.17;4.50;;;;;;;;;;5094116;28;20185;-59
2022/11/16 03:06:13;;;;;;;5.03;3.80;;;;;;;;;;5073279;28;20075;-59
2022/11/16 03:08:42;;;;;;;5.07;3.57;;;;;;;;;;5068640;28;20045;-60
2022/11/16 03:13:57;;;;;;;3.93;2.53;;;;;;;;;;5081758;28;20104;-60
2022/11/16 03:16:27;;;;;;;4.20;3.37;;;;;;;;;;5090221;28;20031;-59
2022/11/16 03:18:55;;;;;;;12.70;3.47;;;;;;;;;;5093694;28;20047;-59
2022/11/16 03:21:36;;;;;;;4.73;2.87;;;;;;;;;;5091487;28;20020;-60
2022/11/16 03:24:03;;;;;;;9.90;3.37;;;;;;;;;;5093197;28;20063;-60
2022/11/16 03:26:34;;;;;;;5.67;4.30;;;;;;;;;;5093549;28;20024;-60
2022/11/16 03:29:07;;;;;;;5.70;3.90;;;;;;;;;;5086089;28;20118;-61
2022/11/16 03:31:46;;;;;;;4.87;3.80;;;;;;;;;;5068085;28;20059;-60
2022/11/16 03:34:15;;;;;;;4.43;3.37;;;;;;;;;;5068066;28;20021;-60
2022/11/16 03:36:43;;;;;;;3.73;2.87;;;;;;;;;;5084452;28;20024;-60
2022/11/16 03:39:16;;;;;;;6.40;3.50;;;;;;;;;;5090666;28;20386;-60
2022/11/16 03:41:44;;;;;;;5.07;3.37;;;;;;;;;;5093258;28;20099;-60
2022/11/16 03:44:12;;;;;;;4.67;2.53;;;;;;;;;;5093324;28;20344;-60
2022/11/16 03:46:39;;;;;;;3.57;2.57;;;;;;;;;;5092516;28;20024;-60
2022/11/16 03:49:06;;;;;;;3.90;3.33;;;;;;;;;;5091239;28;20043;-60
2022/11/16 03:51:33;;;;;;;5.90;4.40;;;;;;;;;;5088144;28;20023;-61
2022/11/16 03:54:00;;;;;;;6.17;3.43;;;;;;;;;;5075298;28;20039;-60
2022/11/16 03:56:26;;;;;;;2.63;2.17;;;;;;;;;;5084115;28;20034;-60
2022/11/16 03:58:53;;;;;;;9.07;4.53;;;;;;;;;;5084708;28;20020;-60
2022/11/16 04:01:20;;;;;;;6.50;4.40;;;;;;;;;;5070341;28;20040;-60
2022/11/16 04:03:46;;;;;;;10.77;5.33;;;;;;;;;;5072357;28;20067;-59
2022/11/16 04:24:11;;;;;;;7.82;4.45;;;;;;;;;;5093159;28;20096;-60
2022/11/16 04:25:49;;;;;;;5.00;4.13;;;;;;;;;;5072386;28;20439;-60
2022/11/16 04:28:18;;;;;;;5.07;3.30;;;;;;;;;;5072224;28;20052;-60
2022/11/16 04:39:06;;;;;;;8.82;4.75;;;;;;;;;;5067381;28;20327;-59
2022/11/16 04:44:17;;;;;;;;;;;;;;;;;;5071877;28;20083;-58
2022/11/16 04:47:06;;;;;;;6.83;3.23;;;;;;;;;;5075504;28;20254;-60
2022/11/16 04:49:33;;;;;;;3.63;2.53;;;;;;;;;;5075867;28;20028;-60
2022/11/16 04:52:00;;;;;;;4.13;2.97;;;;;;;;;;5076055;28;20052;-60
2022/11/16 04:54:31;;;;;;;6.90;4.60;;;;;;;;;;5077080;28;20020;-60
2022/11/16 04:56:59;;;;;;;8.73;3.80;;;;;;;;;;5075465;28;20029;-60
2022/11/16 04:59:33;;;;;;;5.07;2.77;;;;;;;;;;5071036;28;20089;-61
2022/11/16 05:02:10;;;;;;;6.87;2.73;;;;;;;;;;5070745;28;20024;-61
2022/11/16 05:04:42;;;;;;;8.47;3.97;;;;;;;;;;5077083;28;20028;-60
2022/11/16 05:07:10;;;;;;;7.07;3.63;;;;;;;;;;5073573;28;20429;-60
2022/11/16 05:09:43;;;;;;;5.83;4.57;;;;;;;;;;5094893;28;20080;-60
2022/11/16 05:12:19;;;;;;;5.93;4.43;;;;;;;;;;5093801;28;20037;-60
2022/11/16 05:14:46;;;;;;;6.07;3.33;;;;;;;;;;5073780;28;20115;-60
2022/11/16 05:17:16;;;;;;;4.77;3.47;;;;;;;;;;5075532;28;20540;-60
2022/11/16 05:22:29;;;;;;;2.75;2.25;;;;;;;;;;5084310;28;20092;-61
2022/11/16 05:24:58;;;;;;;2.43;2.17;;;;;;;;;;5069823;28;20044;-60
2022/11/16 05:27:26;;;;;;;5.10;3.40;;;;;;;;;;5070563;28;20029;-60
2022/11/16 05:29:55;;;;;;;3.57;2.53;;;;;;;;;;5072186;28;20020;-60
2022/11/16 05:32:23;;;;;;;5.53;4.03;;;;;;;;;;5075393;28;20036;-60
2022/11/16 05:34:50;;;;;;;7.53;3.20;;;;;;;;;;5075223;28;20403;-60
2022/11/16 05:37:19;;;;;;;4.00;2.97;;;;;;;;;;5075152;28;20024;-60
2022/11/16 05:39:47;;;;;;;6.60;4.53;;;;;;;;;;5093238;28;20028;-60
2022/11/16 05:42:14;;;;;;;22.10;4.53;;;;;;;;;;5092859;28;20020;-60
2022/11/16 05:44:42;;;;;;;4.97;3.73;;;;;;;;;;5090632;28;20024;-60
2022/11/16 05:47:10;;;;;;;5.57;4.50;;;;;;;;;;5090262;28;20048;-61
2022/11/16 05:49:37;;;;;;;3.60;2.60;;;;;;;;;;5090469;28;20027;-61
2022/11/16 05:52:06;;;;;;;5.53;3.47;;;;;;;;;;5084181;28;20067;-60
2022/11/16 05:54:33;;;;;;;5.00;3.60;;;;;;;;;;5083776;28;20027;-60
2022/11/16 05:57:00;;;;;;;3.50;2.83;;;;;;;;;;5085762;28;20031;-59
2022/11/16 05:59:28;;;;;;;5.97;4.83;;;;;;;;;;5095228;28;20035;-59
2022/11/16 06:01:58;;;;;;;6.60;4.03;;;;;;;;;;5078329;28;20032;-59
2022/11/16 06:04:25;;;;;;;4.30;3.47;;;;;;;;;;5072939;28;20051;-59
2022/11/16 06:06:52;;;;;;;7.10;2.33;;;;;;;;;;5069713;28;20025;-59
2022/11/16 06:09:19;;;;;;;5.97;3.90;;;;;;;;;;5069684;28;20103;-59
2022/11/16 06:11:46;;;;;;;4.70;3.97;;;;;;;;;;5069340;28;20021;-59
2022/11/16 06:14:13;;;;;;;10.97;4.53;;;;;;;;;;5070360;28;20024;-61
2022/11/16 06:16:39;;;;;;;3.93;2.97;;;;;;;;;;5074450;28;20370;-59
2022/11/16 06:19:06;;;;;;;3.73;2.50;;;;;;;;;;5074396;28;20483;-59
2022/11/16 06:21:34;;;;;;;5.53;3.00;;;;;;;;;;5074504;28;20036;-59
2022/11/16 06:24:01;;;;;;;10.03;4.70;;;;;;;;;;5073858;28;20024;-59
2022/11/16 06:26:28;;;;;;;6.50;3.90;;;;;;;;;;5072918;28;20024;-59
2022/11/16 06:28:55;;;;;;;8.00;4.10;;;;;;;;;;5085133;28;20441;-59
2022/11/16 06:31:22;;;;;;;4.13;3.47;;;;;;;;;;5071302;28;20085;-59
2022/11/16 06:33:49;;;;;;;5.37;3.87;;;;;;;;;;5089203;28;20035;-59
2022/11/16 06:36:16;;;;;;;4.67;3.43;;;;;;;;;;5089515;28;20386;-59
2022/11/16 06:38:43;;;;;;;3.73;3.17;;;;;;;;;;5094414;28;20095;-59
2022/11/16 06:41:09;;;;;;;5.53;3.97;;;;;;;;;;5094013;28;20020;-59
2022/11/16 06:43:36;;;;;;;10.77;5.23;;;;;;;;;;5094044;28;20091;-59
2022/11/16 06:46:03;;;;;;;8.23;3.53;;;;;;;;;;5088219;28;20060;-59
2022/11/16 06:48:32;;;;;;;6.37;4.17;;;;;;;;;;5073154;28;20092;-59
2022/11/16 06:50:59;;;;;;;3.73;3.23;;;;;;;;;;5068504;28;20031;-59
2022/11/16 06:53:26;;;;;;;5.07;3.40;;;;;;;;;;5068447;28;20051;-59
2022/11/16 06:55:53;;;;;;;11.17;4.43;;;;;;;;;;5068574;28;20090;-59
2022/11/16 06:58:20;;;;;;;6.43;3.37;;;;;;;;;;5068353;28;20081;-59
2022/11/16 07:00:46;;;;;;;5.23;3.03;;;;;;;;;;5073341;28;20352;-59
2022/11/16 07:03:13;;;;;;;3.23;2.67;;;;;;;;;;5073575;28;20024;-59
2022/11/16 07:05:43;;;;;;;7.70;4.07;;;;;;;;;;5089225;28;20462;-60
2022/11/16 07:08:10;;;;;;;7.77;4.07;;;;;;;;;;5085765;28;20027;-59
2022/11/16 07:10:38;;;;;;;5.93;3.93;;;;;;;;;;5073053;28;20055;-61
2022/11/16 07:13:05;;;;;;;6.90;4.80;;;;;;;;;;5067831;28;20040;-59
2022/11/16 07:15:32;;;;;;;19.57;5.43;;;;;;;;;;5068266;28;20028;-58
2022/11/16 07:18:06;;;;;;;4.17;3.33;;;;;;;;;;5067986;28;20945;-60
2022/11/16 07:20:33;;;;;;;5.07;3.87;;;;;;;;;;5068206;28;20029;-59
2022/11/16 07:23:01;;;;;;;6.17;3.80;;;;;;;;;;5073252;28;20021;-60
2022/11/16 07:25:28;;;;;;;9.77;5.10;;;;;;;;;;5073082;28;20049;-60
2022/11/16 07:27:54;;;;;;;3.73;3.17;;;;;;;;;;5090581;28;20173;-60
2022/11/16 07:30:21;;;;;;;4.00;3.17;;;;;;;;;;5093419;28;20016;-60
2022/11/16 07:32:48;;;;;;;5.37;4.10;;;;;;;;;;5093052;28;20154;-59
2022/11/16 07:35:15;;;;;;;5.67;2.90;;;;;;;;;;5087792;28;20103;-59
2022/11/16 07:37:42;;;;;;;4.77;3.20;;;;;;;;;;5087987;28;20031;-59
2022/11/16 07:40:09;;;;;;;11.23;3.93;;;;;;;;;;5087864;28;20028;-59
2022/11/16 07:42:36;;;;;;;4.37;3.70;;;;;;;;;;5088054;28;20032;-59
2022/11/16 07:45:03;;;;;;;7.20;4.80;;;;;;;;;;5084241;28;20024;-59
2022/11/16 07:47:34;;;;;;;4.83;4.33;;;;;;;;;;5072683;28;20108;-59
2022/11/16 07:50:01;;;;;;;10.80;4.90;;;;;;;;;;5072837;28;20021;-59
2022/11/16 07:52:28;;;;;;;4.30;3.47;;;;;;;;;;5072391;28;20116;-59
2022/11/16 07:54:54;;;;;;;6.50;3.33;;;;;;;;;;5072667;28;20048;-59
2022/11/16 07:57:21;;;;;;;9.87;6.43;;;;;;;;;;5067473;28;20471;-59
2022/11/16 07:59:48;;;;;;;6.50;4.27;;;;;;;;;;5067356;28;20134;-58
2022/11/16 08:02:14;;;;;;;5.33;4.20;;;;;;;;;;5067222;28;20380;-59
2022/11/16 08:04:41;;;;;;;5.93;4.60;;;;;;;;;;5086669;28;20024;-59
2022/11/16 08:07:07;;;;;;;7.10;3.50;;;;;;;;;;5091655;28;20035;-59
2022/11/16 08:09:36;;;;;;;33.03;4.13;;;;;;;;;;5092521;28;20024;-60
2022/11/16 08:12:03;;;;;;;6.60;4.00;;;;;;;;;;5086329;28;20127;-59
2022/11/16 08:14:29;;;;;;;5.77;3.93;;;;;;;;;;5071677;28;20020;-59
2022/11/16 08:16:56;;;;;;;3.53;3.23;;;;;;;;;;5071971;28;20082;-60
2022/11/16 08:19:23;;;;;;;6.00;4.73;;;;;;;;;;5084916;28;20433;-60
2022/11/16 08:21:49;;;;;;;2.97;2.60;;;;;;;;;;5087375;28;20500;-59
2022/11/16 08:24:17;;;;;;;4.03;2.87;;;;;;;;;;5087313;28;20027;-59
2022/11/16 08:26:43;;;;;;;4.83;3.43;;;;;;;;;;5087308;28;20020;-59
2022/11/16 08:29:10;;;;;;;3.43;3.00;;;;;;;;;;5091029;28;20081;-59
2022/11/16 08:31:37;;;;;;;9.47;4.13;;;;;;;;;;5090283;28;20090;-58
2022/11/16 08:34:03;;;;;;;4.80;3.90;;;;;;;;;;5086550;28;20067;-59
2022/11/16 08:36:30;;;;;;;3.20;2.43;;;;;;;;;;5091987;28;20028;-58
2022/11/16 08:38:57;;;;;;;3.10;2.77;;;;;;;;;;5092424;28;20114;-59
2022/11/16 08:41:23;;;;;;;6.30;4.40;;;;;;;;;;5088539;28;20023;-60
2022/11/16 08:43:52;;;;;;;3.97;3.53;;;;;;;;;;5086931;28;20024;-58
2022/11/16 08:46:18;;;;;;;4.40;3.80;;;;;;;;;;5086963;28;20390;-59
2022/11/16 08:48:45;;;;;;;5.97;4.77;;;;;;;;;;5074688;28;20032;-59
2022/11/16 08:51:13;;;;;;;20.27;4.27;;;;;;;;;;5069852;28;20349;-58
2022/11/16 08:53:40;;;;;;;6.10;3.33;;;;;;;;;;5072146;28;20287;-59
2022/11/16 08:56:14;;;;;;;3.73;3.17;;;;;;;;;;5072229;28;20491;-59
2022/11/16 08:58:45;;;;;;;4.37;3.83;;;;;;;;;;5072019;28;20028;-58
2022/11/16 09:01:13;;;;;;;27.17;3.40;;;;;;;;;;5071851;28;20333;-58
2022/11/16 09:03:40;;;;;;;11.77;4.87;;;;;;;;;;5067727;28;20342;-59
2022/11/16 09:06:08;;;;;;;3.27;2.67;;;;;;;;;;5083812;28;20358;-59
2022/11/16 09:08:35;;;;;;;5.93;4.40;;;;;;;;;;5086770;28;20330;-58
2022/11/16 09:11:06;;;;;;;7.20;5.00;;;;;;;;;;5086780;28;20659;-59
2022/11/16 09:13:32;;;;;;;3.37;2.87;;;;;;;;;;5090113;28;20287;-59
2022/11/16 09:15:59;;;;;;;2.77;2.47;;;;;;;;;;5092028;28;20650;-58
2022/11/16 09:18:27;;;;;;;5.30;3.57;;;;;;;;;;5091604;28;20252;-59
2022/11/16 09:20:54;;;;;;;2.57;2.37;;;;;;;;;;5091539;28;20268;-58
2022/11/16 09:23:21;;;;;;;4.97;3.37;;;;;;;;;;5083568;28;20353;-58
2022/11/16 09:25:47;;;;;;;4.67;3.37;;;;;;;;;;5068684;28;21013;-58
2022/11/16 09:28:15;;;;;;;3.43;2.90;;;;;;;;;;5071327;28;20273;-59
2022/11/16 09:30:42;;;;;;;5.43;2.93;;;;;;;;;;5069949;28;20272;-59
2022/11/16 09:33:09;;;;;;;5.07;2.47;;;;;;;;;;5070021;28;20787;-59
2022/11/16 09:35:36;;;;;;;4.83;4.13;;;;;;;;;;5091251;28;20296;-58
2022/11/16 09:38:03;;;;;;;5.10;3.97;;;;;;;;;;5095411;28;20306;-59
2022/11/16 09:40:44;;;;;;;4.00;3.33;;;;;;;;;;5095571;28;20734;-58
2022/11/16 09:43:37;;;;;;;5.93;5.17;;;;;;;;;;5095554;28;20272;-58
2022/11/16 09:46:16;;;;;;;5.40;3.93;;;;;;;;;;5095224;28;20265;-58
2022/11/16 09:48:43;;;;;;;3.40;3.10;;;;;;;;;;5089980;28;20267;-58
2022/11/16 09:51:13;;;;;;;5.27;3.50;;;;;;;;;;5090246;28;20265;-59
2022/11/16 09:53:55;;;;;;;4.30;3.77;;;;;;;;;;5074171;28;20486;-59
2022/11/16 09:56:23;;;;;;;2.87;2.53;;;;;;;;;;5069696;28;20250;-59
2022/11/16 09:59:02;;;;;;;8.43;3.33;;;;;;;;;;5074830;28;20257;-59
2022/11/16 10:01:29;;;;;;;5.50;3.83;;;;;;;;;;5074799;28;20727;-58
2022/11/16 10:04:02;;;;;;;6.37;3.90;;;;;;;;;;5074666;28;20273;-58
2022/11/16 10:06:47;;;;;;;6.77;3.20;;;;;;;;;;5074485;28;20261;-58
2022/11/16 10:09:14;;;;;;;6.85;3.58;;;;;;;;;;5073051;28;20259;-58
2022/11/16 10:11:59;;;;;;;4.20;3.15;;;;;;;;;;5080853;28;20036;-58
2022/11/16 10:14:31;;;;;;;7.15;3.67;;;;;;;;;;5089355;28;20257;-58
2022/11/16 10:16:58;;;;;;;5.97;4.43;;;;;;;;;;5089518;28;20050;-59
2022/11/16 10:19:32;;;;;;;6.53;2.80;;;;;;;;;;5091290;28;20249;-58
2022/11/16 10:22:10;;;;;;;8.30;4.03;;;;;;;;;;5094787;28;20248;-58
2022/11/16 10:24:56;;;;;;;4.17;3.10;;;;;;;;;;5094756;28;20453;-58
2022/11/16 10:27:43;;;;;;;2.63;2.30;;;;;;;;;;5094546;28;20244;-58
2022/11/16 10:30:15;;;;;;;4.83;3.77;;;;;;;;;;5081651;28;20261;-58
2022/11/16 10:32:58;;;;;;;3.70;3.40;;;;;;;;;;5069499;28;20323;-58
2022/11/16 10:35:29;;;;;;;2.43;1.93;;;;;;;;;;5068955;28;20253;-58
2022/11/16 10:38:01;;;;;;;4.60;3.13;;;;;;;;;;5068627;28;20285;-58
2022/11/16 10:40:30;;;;;;;3.47;2.87;;;;;;;;;;5068811;28;20343;-58
2022/11/16 10:43:11;;;;;;;4.90;4.03;;;;;;;;;;5082912;28;20264;-58
2022/11/16 10:45:39;;;;;;;4.20;3.00;;;;;;;;;;5094328;28;20759;-58
2022/11/16 10:48:24;;;;;;;8.13;4.37;;;;;;;;;;5094109;28;20656;-59
2022/11/16 10:50:51;;;;;;;5.22;4.32;;;;;;;;;;5093868;28;20340;-58
2022/11/16 10:53:33;;;;;;;4.90;3.13;;;;;;;;;;5093607;28;20032;-58
2022/11/16 10:56:11;;;;;;;4.37;3.60;;;;;;;;;;5088538;28;20283;-59
2022/11/16 10:58:51;;;;;;;8.97;4.10;;;;;;;;;;5088841;28;20268;-58
2022/11/16 11:01:51;;;;;;;3.03;2.73;;;;;;;;;;5078899;28;20597;-58
2022/11/16 11:04:18;;;;;;;5.03;3.70;;;;;;;;;;5052946;28;20276;-58
2022/11/16 11:06:45;;;;;;;5.77;4.23;;;;;;;;;;5073086;28;20253;-58
2022/11/16 11:09:20;;;;;;;3.77;3.07;;;;;;;;;;5073393;28;20250;-58
2022/11/16 11:15:05;;;;;;;4.27;3.43;;;;;;;;;;5072959;28;20094;-58
2022/11/16 11:17:33;;;;;;;14.13;3.63;;;;;;;;;;5068100;28;20343;-58
2022/11/16 11:20:07;;;;;;;5.90;4.77;;;;;;;;;;5069105;28;20028;-58
2022/11/16 11:22:41;;;;;;;3.22;2.90;;;;;;;;;;5067939;28;20254;-58
2022/11/16 11:25:19;;;;;;;4.30;3.90;;;;;;;;;;5067948;28;20047;-58
2022/11/16 11:27:46;;;;;;;6.90;4.30;;;;;;;;;;5073026;28;20715;-58
2022/11/16 11:30:19;;;;;;;5.17;4.33;;;;;;;;;;5073226;28;20258;-58
2022/11/16 11:32:46;;;;;;;5.77;4.37;;;;;;;;;;5072781;28;20292;-59
2022/11/16 11:35:23;;;;;;;4.77;3.30;;;;;;;;;;5072788;28;20696;-59
2022/11/16 11:37:51;;;;;;;3.67;3.27;;;;;;;;;;5078798;28;20352;-58
2022/11/16 11:40:19;;;;;;;6.30;4.53;;;;;;;;;;5088064;28;20260;-58
2022/11/16 11:42:54;;;;;;;5.33;4.67;;;;;;;;;;5087751;28;20280;-58
2022/11/16 11:45:23;;;;;;;5.25;3.75;;;;;;;;;;5087379;28;20257;-58
2022/11/16 11:48:05;;;;;;;4.40;3.63;;;;;;;;;;5088238;28;20051;-58
2022/11/16 11:50:36;;;;;;;6.30;3.80;;;;;;;;;;5092169;28;20260;-60
2022/11/16 11:53:06;;;;;;;16.57;4.20;;;;;;;;;;5092685;28;20337;-58
2022/11/16 11:55:33;;;;;;;5.63;4.80;;;;;;;;;;5090918;28;20256;-58
2022/11/16 11:58:02;;;;;;;3.17;2.60;;;;;;;;;;5072731;28;20257;-58
2022/11/16 12:00:36;;;;;;;3.13;2.53;;;;;;;;;;5070941;28;20303;-58
2022/11/16 12:03:06;;;;;;;4.80;2.83;;;;;;;;;;5067211;28;20269;-59
2022/11/16 12:05:44;;;;;;;3.87;3.27;;;;;;;;;;5067072;28;20115;-59
2022/11/16 12:08:19;;;;;;;4.53;3.20;;;;;;;;;;5066880;28;20310;-58
2022/11/16 12:10:52;;;;;;;3.13;2.57;;;;;;;;;;5069321;28;20265;-58
2022/11/16 12:13:46;;;;;;;4.27;3.37;;;;;;;;;;5072449;28;20281;-58
2022/11/16 12:16:28;;;;;;;3.87;2.70;;;;;;;;;;5072396;28;20612;-58
2022/11/16 12:19:01;;;;;;;4.43;2.80;;;;;;;;;;5072496;28;20257;-58
2022/11/16 12:21:46;;;;;;;5.60;3.63;;;;;;;;;;5072319;28;20401;-58
2022/11/16 12:24:30;;;;;;;4.18;3.33;;;;;;;;;;5067246;28;20284;-58
2022/11/16 12:27:00;;;;;;;2.57;2.20;;;;;;;;;;5067209;28;20024;-59
2022/11/16 12:29:31;;;;;;;3.37;2.80;;;;;;;;;;5067129;28;20300;-58
2022/11/16 12:32:18;;;;;;;7.73;4.40;;;;;;;;;;5066825;28;20574;-58
2022/11/16 12:34:52;;;;;;;5.70;3.10;;;;;;;;;;5061783;28;20270;-58
2022/11/16 12:37:27;;;;;;;4.83;3.83;;;;;;;;;;5072232;28;20340;-58
2022/11/16 12:40:14;;;;;;;2.70;2.30;;;;;;;;;;5071687;28;20258;-58
2022/11/16 12:42:41;;;;;;;2.90;2.30;;;;;;;;;;5072042;28;20250;-58
2022/11/16 12:45:15;;;;;;;3.80;3.33;;;;;;;;;;5069932;28;20600;-59
2022/11/16 12:47:41;;;;;;;4.33;2.50;;;;;;;;;;5080920;28;20650;-57
2022/11/16 12:50:17;;;;;;;4.67;3.50;;;;;;;;;;5086660;28;20715;-58
2022/11/16 12:53:02;;;;;;;6.80;3.17;;;;;;;;;;5086957;28;20345;-58
2022/11/16 12:55:47;;;;;;;3.85;3.30;;;;;;;;;;5089747;28;20249;-57
2022/11/16 12:58:28;;;;;;;3.65;2.75;;;;;;;;;;5092298;28;20031;-58
2022/11/16 13:01:04;;;;;;;4.20;3.07;;;;;;;;;;5093071;28;20035;-58
2022/11/16 13:03:41;;;;;;;2.83;2.23;;;;;;;;;;5096192;28;20646;-57
2022/11/16 13:06:13;;;;;;;2.70;2.37;;;;;;;;;;5081555;28;20368;-57
2022/11/16 13:08:52;;;;;;;6.70;3.10;;;;;;;;;;5070682;28;20249;-57
2022/11/16 13:11:33;;;;;;;5.67;4.73;;;;;;;;;;5070606;28;20766;-58
2022/11/16 13:14:02;;;;;;;5.27;3.47;;;;;;;;;;5070050;28;20288;-57
2022/11/16 13:16:29;;;;;;;3.53;2.77;;;;;;;;;;5070328;28;20265;-58
2022/11/16 13:18:55;;;;;;;3.40;2.80;;;;;;;;;;5075723;28;20302;-57
2022/11/16 13:21:28;;;;;;;7.43;5.03;;;;;;;;;;5075607;28;20740;-57
2022/11/16 13:24:12;;;;;;;11.47;4.57;;;;;;;;;;5084082;28;20572;-58
2022/11/16 13:26:42;;;;;;;5.60;3.03;;;;;;;;;;5095799;28;20287;-57
2022/11/16 13:29:12;;;;;;;4.80;3.77;;;;;;;;;;5094111;28;20260;-57
2022/11/16 13:31:42;;;;;;;7.10;4.33;;;;;;;;;;5090127;28;21634;-57
2022/11/16 13:34:30;;;;;;;4.37;3.20;;;;;;;;;;5090135;28;20261;-59
2022/11/16 13:36:57;;;;;;;9.60;4.17;;;;;;;;;;5089018;28;20357;-58
2022/11/16 13:39:53;;;;;;;12.67;3.90;;;;;;;;;;5071886;28;20265;-58
2022/11/16 13:42:19;;;;;;;3.97;3.17;;;;;;;;;;5053526;28;20257;-58
2022/11/16 13:44:46;;;;;;;4.57;3.10;;;;;;;;;;5075203;28;20375;-58
2022/11/16 13:47:25;;;;;;;5.83;3.83;;;;;;;;;;5079512;28;20020;-58
2022/11/16 13:49:55;;;;;;;6.60;3.83;;;;;;;;;;5083190;28;20020;-57
2022/11/16 13:52:22;;;;;;;3.77;3.17;;;;;;;;;;5084438;28;20060;-58
2022/11/16 13:54:50;;;;;;;21.27;4.70;;;;;;;;;;5069786;28;20029;-58
2022/11/16 13:57:27;;;;;;;6.27;3.30;;;;;;;;;;5081374;28;20069;-58
2022/11/16 14:00:08;;;;;;;23.53;4.07;;;;;;;;;;5090166;28;20099;-58
2022/11/16 14:02:36;;;;;;;5.50;3.40;;;;;;;;;;5093354;28;20574;-57
2022/11/16 14:05:02;;;;;;;12.30;4.63;;;;;;;;;;5089543;28;20024;-58
2022/11/16 14:07:29;;;;;;;4.93;3.60;;;;;;;;;;5074703;28;20037;-59
2022/11/16 14:09:56;;;;;;;10.60;4.73;;;;;;;;;;5075812;28;20066;-60
2022/11/16 14:12:50;;;;;;;7.83;4.77;;;;;;;;;;5073718;28;20024;-60
2022/11/16 14:15:19;;;;;;;5.17;3.77;;;;;;;;;;5070065;28;20150;-60
2022/11/16 14:17:48;;;;;;;5.57;4.17;;;;;;;;;;5072013;28;20064;-61
2022/11/16 14:20:15;;;;;;;5.17;3.83;;;;;;;;;;5082239;28;20028;-60
2022/11/16 14:22:49;;;;;;;4.53;2.40;;;;;;;;;;5079676;28;20027;-61
2022/11/16 14:25:16;;;;;;;6.10;3.90;;;;;;;;;;5093641;28;20031;-60
2022/11/16 14:28:09;;;;;;;6.43;3.50;;;;;;;;;;5094358;28;20572;-59
2022/11/16 14:30:45;;;;;;;6.20;3.40;;;;;;;;;;5056476;28;20043;-59
2022/11/16 14:33:14;;;;;;;7.90;4.23;;;;;;;;;;5080244;28;20067;-59
2022/11/16 14:35:40;;;;;;;6.53;3.93;;;;;;;;;;5075755;28;20549;-59
2022/11/16 14:38:15;;;;;;;3.83;3.47;;;;;;;;;;5089142;28;20111;-60
2022/11/16 14:40:52;;;;;;;3.03;2.47;;;;;;;;;;5089422;28;20046;-60
2022/11/16 14:43:26;;;;;;;10.77;4.50;;;;;;;;;;5089177;28;20379;-61
2022/11/16 14:45:56;;;;;;;6.35;3.47;;;;;;;;;;5090707;28;20022;-60
2022/11/16 14:48:26;;;;;;;6.60;3.30;;;;;;;;;;5094177;28;20020;-59
2022/11/16 14:50:59;;;;;;;4.00;2.80;;;;;;;;;;5074824;28;20020;-60
2022/11/16 14:53:26;;;;;;;33.37;4.03;;;;;;;;;;5073998;28;20039;-59
2022/11/16 14:56:04;;;;;;;4.17;3.00;;;;;;;;;;5089416;28;20406;-59
2022/11/16 14:58:31;;;;;;;7.67;3.73;;;;;;;;;;5070923;28;20033;-59
2022/11/16 15:00:59;;;;;;;5.37;3.87;;;;;;;;;;5068861;28;20037;-59
2022/11/16 15:03:28;;;;;;;7.53;4.40;;;;;;;;;;5068688;28;20410;-58
2022/11/16 15:06:00;;;;;;;5.13;3.60;;;;;;;;;;5068705;28;20025;-59
2022/11/16 15:08:31;;;;;;;4.90;3.73;;;;;;;;;;5070817;28;20495;-59
2022/11/16 15:10:58;;;;;;;4.83;2.67;;;;;;;;;;5073426;28;20020;-60
2022/11/16 15:13:25;;;;;;;7.37;3.20;;;;;;;;;;5073340;28;20556;-60
2022/11/16 15:16:09;;;;;;;5.33;3.60;;;;;;;;;;5074333;28;20499;-59
2022/11/16 15:18:36;;;;;;;4.60;3.20;;;;;;;;;;5073272;28;20021;-59
2022/11/16 15:21:03;;;;;;;8.17;3.43;;;;;;;;;;5070182;28;20498;-59
2022/11/16 15:23:29;;;;;;;5.33;3.00;;;;;;;;;;5074426;28;20103;-59
2022/11/16 15:25:58;;;;;;;4.47;3.33;;;;;;;;;;5088585;28;20016;-60
2022/11/16 15:28:29;;;;;;;3.97;3.10;;;;;;;;;;5088462;28;20545;-59
2022/11/16 15:30:57;;;;;;;5.37;1.93;;;;;;;;;;5090978;28;20024;-60
2022/11/16 15:33:26;;;;;;;3.57;2.63;;;;;;;;;;5093306;28;20032;-60
2022/11/16 15:35:54;;;;;;;5.53;2.87;;;;;;;;;;5081593;28;20073;-59
2022/11/16 15:38:23;;;;;;;3.97;2.47;;;;;;;;;;5073470;28;20532;-60
2022/11/16 15:40:52;;;;;;;4.57;2.57;;;;;;;;;;5073046;28;20535;-60